createdAt,value
2018-09-29T00:00:10.193Z,6.38
2018-09-29T00:03:13.878Z,6.34
2018-09-29T00:06:17.923Z,6.31
2018-09-29T00:09:21.556Z,6.22
2018-09-29T00:12:25.120Z,6.25
2018-09-29T00:15:28.677Z,6.29
2018-09-29T00:18:32.239Z,6.25
2018-09-29T00:21:36.105Z,6.16
2018-09-29T00:24:39.655Z,6.08
2018-09-29T00:27:43.210Z,6.00
2018-09-29T00:30:46.847Z,6.10
2018-09-29T00:33:50.370Z,6.05
2018-09-29T00:36:53.950Z,6.00
2018-09-29T00:39:57.480Z,5.95
2018-09-29T00:43:01.241Z,5.83
2018-09-29T00:46:04.900Z,5.79
2018-09-29T00:49:08.381Z,5.76
2018-09-29T00:52:12.592Z,5.85
2018-09-29T00:55:16.196Z,5.84
2018-09-29T00:58:19.780Z,5.86
2018-09-29T01:01:23.451Z,5.81
2018-09-29T01:04:27.012Z,5.83
2018-09-29T01:07:30.517Z,5.81
2018-09-29T01:10:34.197Z,5.81
2018-09-29T01:13:37.896Z,5.78
2018-09-29T01:16:41.483Z,5.79
2018-09-29T01:19:45.071Z,5.84
2018-09-29T01:22:48.846Z,5.76
2018-09-29T01:25:52.378Z,5.75
2018-09-29T01:28:55.903Z,5.79
2018-09-29T01:31:59.507Z,5.81
2018-09-29T01:35:03.071Z,5.81
2018-09-29T01:38:06.636Z,5.76
2018-09-29T01:41:10.142Z,5.77
2018-09-29T01:44:13.886Z,5.74
2018-09-29T01:47:17.444Z,5.69
2018-09-29T01:50:21.035Z,5.70
2018-09-29T01:53:24.667Z,5.69
2018-09-29T01:56:28.431Z,5.60
2018-09-29T01:59:32.069Z,5.60
2018-09-29T02:02:35.769Z,5.56
2018-09-29T02:05:40.287Z,5.63
2018-09-29T02:08:43.798Z,5.67
2018-09-29T02:11:47.348Z,5.63
2018-09-29T02:14:50.867Z,5.68
2018-09-29T02:17:54.521Z,5.65
2018-09-29T02:20:58.192Z,5.70
2018-09-29T02:24:01.915Z,5.69
2018-09-29T02:27:05.556Z,5.55
2018-09-29T02:30:09.105Z,5.52
2018-09-29T02:33:12.747Z,5.56
2018-09-29T02:36:16.267Z,5.50
2018-09-29T02:39:19.912Z,5.49
2018-09-29T02:42:23.607Z,5.52
2018-09-29T02:45:27.163Z,5.53
2018-09-29T02:48:30.741Z,5.59
2018-09-29T02:51:34.621Z,5.52
2018-09-29T02:54:38.282Z,5.51
2018-09-29T02:57:41.785Z,5.48
2018-09-29T03:00:45.293Z,5.61
2018-09-29T03:03:48.893Z,5.49
2018-09-29T03:06:52.406Z,5.48
2018-09-29T03:09:55.933Z,5.46
2018-09-29T03:12:59.502Z,5.46
2018-09-29T03:16:03.133Z,5.42
2018-09-29T03:19:06.683Z,5.48
2018-09-29T03:22:10.239Z,5.53
2018-09-29T03:25:13.819Z,5.52
2018-09-29T03:28:17.319Z,5.52
2018-09-29T03:31:20.955Z,5.51
2018-09-29T03:34:24.569Z,5.56
2018-09-29T03:37:28.248Z,5.57
2018-09-29T03:40:31.815Z,5.50
2018-09-29T03:43:35.393Z,5.49
2018-09-29T03:46:39.343Z,5.35
2018-09-29T03:49:42.853Z,5.32
2018-09-29T03:52:46.405Z,5.38
2018-09-29T03:55:49.934Z,5.49
2018-09-29T03:58:53.464Z,5.48
2018-09-29T04:01:56.961Z,5.54
2018-09-29T04:05:00.589Z,5.42
2018-09-29T04:08:04.164Z,5.24
2018-09-29T04:11:07.708Z,5.21
2018-09-29T04:14:11.228Z,5.12
2018-09-29T04:17:14.905Z,5.27
2018-09-29T04:20:18.625Z,5.35
2018-09-29T04:23:22.309Z,5.20
2018-09-29T04:26:25.971Z,5.25
2018-09-29T04:29:29.538Z,5.31
2018-09-29T04:32:33.115Z,5.33
2018-09-29T04:35:36.640Z,5.33
2018-09-29T04:38:40.250Z,5.24
2018-09-29T04:41:43.849Z,5.34
2018-09-29T04:44:47.357Z,5.30
2018-09-29T04:47:50.878Z,5.27
2018-09-29T04:50:54.445Z,5.27
2018-09-29T04:53:58.025Z,5.37
2018-09-29T04:57:01.565Z,5.27
2018-09-29T05:00:05.225Z,5.33
2018-09-29T05:03:08.865Z,5.33
2018-09-29T05:06:12.501Z,5.32
2018-09-29T05:09:15.990Z,5.19
2018-09-29T05:12:19.792Z,5.31
2018-09-29T05:15:23.494Z,5.43
2018-09-29T05:18:27.013Z,5.41
2018-09-29T05:21:30.661Z,5.26
2018-09-29T05:24:34.231Z,5.32
2018-09-29T05:27:37.915Z,5.39
2018-09-29T05:30:41.529Z,5.42
2018-09-29T05:33:45.101Z,5.45
2018-09-29T05:36:48.748Z,5.55
2018-09-29T05:39:52.338Z,5.59
2018-09-29T05:42:56.024Z,5.68
2018-09-29T05:45:59.700Z,5.81
2018-09-29T05:49:03.384Z,6.05
2018-09-29T05:52:07.009Z,6.48
2018-09-29T05:55:10.573Z,7.00
2018-09-29T05:58:14.114Z,7.45
2018-09-29T06:01:17.789Z,7.67
2018-09-29T06:04:21.285Z,7.83
2018-09-29T06:07:24.884Z,8.00
2018-09-29T06:10:28.326Z,7.94
2018-09-29T06:13:32.120Z,8.08
2018-09-29T06:16:35.667Z,8.12
2018-09-29T06:19:39.226Z,8.14
2018-09-29T06:22:42.678Z,8.19
2018-09-29T06:25:46.284Z,8.15
2018-09-29T06:28:49.857Z,8.38
2018-09-29T06:31:53.437Z,8.45
2018-09-29T06:34:57.151Z,8.57
2018-09-29T06:38:00.735Z,8.64
2018-09-29T06:41:04.425Z,8.71
2018-09-29T06:44:07.990Z,8.79
2018-09-29T06:47:11.518Z,8.81
2018-09-29T06:50:15.117Z,8.94
2018-09-29T06:53:18.782Z,8.74
2018-09-29T06:56:22.351Z,8.90
2018-09-29T06:59:25.932Z,8.78
2018-09-29T07:02:29.445Z,8.96
2018-09-29T07:05:33.023Z,8.95
2018-09-29T07:08:36.981Z,8.98
2018-09-29T07:11:40.808Z,9.06
2018-09-29T07:14:44.412Z,9.04
2018-09-29T07:17:47.921Z,9.08
2018-09-29T07:20:51.564Z,9.10
2018-09-29T07:23:55.200Z,9.02
2018-09-29T07:26:58.711Z,9.06
2018-09-29T07:30:02.216Z,9.04
2018-09-29T07:33:05.835Z,9.00
2018-09-29T07:36:09.410Z,9.05
2018-09-29T07:39:13.081Z,9.23
2018-09-29T07:42:16.727Z,9.16
2018-09-29T07:45:20.316Z,9.22
2018-09-29T07:48:23.923Z,9.22
2018-09-29T07:51:27.568Z,9.38
2018-09-29T07:54:31.127Z,9.48
2018-09-29T07:57:34.744Z,9.34
2018-09-29T08:00:38.494Z,9.48
2018-09-29T08:03:42.226Z,9.49
2018-09-29T08:06:45.934Z,9.71
2018-09-29T08:09:49.606Z,9.69
2018-09-29T08:12:53.287Z,9.62
2018-09-29T08:15:56.964Z,9.55
2018-09-29T08:19:01.097Z,9.61
2018-09-29T08:22:04.805Z,9.53
2018-09-29T08:25:08.492Z,9.70
2018-09-29T08:28:12.213Z,9.82
2018-09-29T08:31:15.769Z,9.79
2018-09-29T08:34:19.474Z,9.88
2018-09-29T08:37:23.305Z,9.95
2018-09-29T08:40:26.999Z,9.94
2018-09-29T08:43:30.614Z,9.89
2018-09-29T08:46:34.390Z,9.99
2018-09-29T08:49:38.023Z,10.24
2018-09-29T08:52:41.702Z,10.20
2018-09-29T08:55:45.419Z,10.31
2018-09-29T08:58:49.170Z,10.41
2018-09-29T09:01:52.740Z,10.42
2018-09-29T09:04:56.442Z,10.55
2018-09-29T09:08:00.128Z,10.53
2018-09-29T09:11:03.649Z,10.56
2018-09-29T09:14:07.467Z,10.57
2018-09-29T09:17:11.187Z,10.78
2018-09-29T09:20:14.702Z,10.75
2018-09-29T09:23:18.391Z,10.75
2018-09-29T09:26:21.866Z,10.99
2018-09-29T09:29:25.479Z,11.01
2018-09-29T09:32:29.034Z,10.99
2018-09-29T09:35:32.672Z,11.04
2018-09-29T09:38:36.319Z,11.26
2018-09-29T09:41:40.122Z,11.42
2018-09-29T09:44:43.713Z,11.52
2018-09-29T09:47:47.340Z,11.36
2018-09-29T09:50:51.085Z,11.60
2018-09-29T09:53:54.845Z,11.47
2018-09-29T09:56:58.508Z,11.67
2018-09-29T10:00:02.207Z,11.58
2018-09-29T10:03:11.285Z,11.61
2018-09-29T10:06:14.854Z,11.67
2018-09-29T10:09:18.484Z,11.67
2018-09-29T10:12:22.147Z,12.04
2018-09-29T10:15:25.816Z,11.88
2018-09-29T10:18:29.428Z,11.71
2018-09-29T10:21:33.264Z,12.01
2018-09-29T10:24:36.858Z,12.02
2018-09-29T10:27:40.500Z,11.96
2018-09-29T10:30:44.084Z,12.12
2018-09-29T10:33:47.739Z,11.91
2018-09-29T10:36:51.339Z,11.97
2018-09-29T10:39:54.918Z,12.07
2018-09-29T10:42:58.528Z,12.11
2018-09-29T10:46:02.125Z,12.13
2018-09-29T10:49:05.772Z,12.10
2018-09-29T10:52:09.382Z,12.51
2018-09-29T10:55:12.994Z,12.50
2018-09-29T10:58:16.663Z,12.86
2018-09-29T11:01:20.152Z,12.79
2018-09-29T11:04:23.916Z,12.72
2018-09-29T11:07:27.497Z,12.78
2018-09-29T11:10:31.089Z,12.78
2018-09-29T11:13:34.655Z,12.82
2018-09-29T11:16:38.245Z,12.85
2018-09-29T11:19:42.046Z,13.07
2018-09-29T11:22:45.640Z,13.34
2018-09-29T11:25:49.297Z,13.58
2018-09-29T11:28:52.868Z,13.61
2018-09-29T11:31:56.489Z,13.61
2018-09-29T11:35:00.213Z,13.66
2018-09-29T11:38:03.825Z,13.84
2018-09-29T11:41:07.583Z,14.03
2018-09-29T11:44:11.196Z,13.88
2018-09-29T11:47:14.779Z,13.91
2018-09-29T11:50:18.562Z,13.61
2018-09-29T11:53:22.259Z,13.48
2018-09-29T11:56:26.064Z,13.54
2018-09-29T11:59:30.023Z,13.41
2018-09-29T12:02:33.639Z,13.55
2018-09-29T12:05:37.323Z,13.98
2018-09-29T12:08:41.029Z,13.80
2018-09-29T12:11:44.744Z,14.04
2018-09-29T12:14:48.398Z,14.06
2018-09-29T12:17:51.930Z,13.54
2018-09-29T12:20:55.482Z,13.49
2018-09-29T12:23:59.203Z,13.60
2018-09-29T12:27:02.795Z,13.77
2018-09-29T12:30:07.190Z,13.95
2018-09-29T12:33:10.959Z,13.68
2018-09-29T12:36:14.540Z,13.73
2018-09-29T12:39:18.172Z,13.78
2018-09-29T12:42:21.720Z,13.93
2018-09-29T12:45:25.280Z,13.82
2018-09-29T12:48:29.871Z,13.54
2018-09-29T12:51:34.193Z,13.40
2018-09-29T12:54:37.650Z,13.34
2018-09-29T12:57:41.239Z,13.36
2018-09-29T13:00:44.815Z,13.19
2018-09-29T13:03:48.520Z,13.23
2018-09-29T13:06:52.251Z,13.24
2018-09-29T13:09:55.883Z,13.27
2018-09-29T13:13:02.002Z,13.18
2018-09-29T13:16:05.695Z,13.38
2018-09-29T13:19:09.386Z,13.39
2018-09-29T13:22:13.074Z,13.37
2018-09-29T13:25:16.620Z,13.32
2018-09-29T13:28:20.244Z,13.51
2018-09-29T13:31:23.809Z,13.44
2018-09-29T13:34:27.459Z,13.08
2018-09-29T13:37:31.120Z,13.08
2018-09-29T13:40:34.855Z,13.12
2018-09-29T13:43:38.465Z,13.19
2018-09-29T13:46:48.810Z,13.19
2018-09-29T13:49:53.103Z,13.22
2018-09-29T13:52:56.744Z,13.16
2018-09-29T13:56:00.352Z,13.26
2018-09-29T13:59:04.812Z,13.11
2018-09-29T14:02:08.505Z,13.08
2018-09-29T14:05:12.131Z,13.06
2018-09-29T14:08:15.882Z,12.91
2018-09-29T14:11:19.480Z,12.93
2018-09-29T14:14:23.111Z,12.97
2018-09-29T14:17:26.776Z,13.07
2018-09-29T14:20:30.534Z,13.20
2018-09-29T14:23:34.069Z,13.27
2018-09-29T14:26:37.689Z,13.30
2018-09-29T14:29:41.311Z,13.14
2018-09-29T14:32:44.916Z,13.11
2018-09-29T14:35:49.399Z,13.31
2018-09-29T14:38:53.542Z,13.10
2018-09-29T14:41:57.267Z,12.96
2018-09-29T14:45:00.841Z,12.94
2018-09-29T14:48:04.596Z,12.87
2018-09-29T14:51:08.706Z,12.61
2018-09-29T14:54:12.327Z,12.77
2018-09-29T14:57:16.022Z,12.67
2018-09-29T15:00:19.682Z,12.57
2018-09-29T15:03:23.372Z,12.70
2018-09-29T15:06:27.287Z,12.66
2018-09-29T15:09:31.074Z,12.42
2018-09-29T15:12:34.652Z,12.51
2018-09-29T15:15:38.230Z,12.90
2018-09-29T15:18:41.828Z,12.84
2018-09-29T15:21:45.410Z,12.71
2018-09-29T15:24:49.026Z,12.58
2018-09-29T15:27:52.585Z,12.42
2018-09-29T15:30:56.282Z,12.22
2018-09-29T15:34:00.043Z,12.16
2018-09-29T15:37:03.819Z,12.11
2018-09-29T15:40:07.506Z,11.98
2018-09-29T15:43:11.147Z,11.90
2018-09-29T15:46:14.926Z,11.71
2018-09-29T15:49:18.921Z,11.66
2018-09-29T15:52:24.938Z,11.48
2018-09-29T15:55:28.755Z,11.31
2018-09-29T15:58:32.286Z,11.18
2018-09-29T16:01:35.944Z,11.19
2018-09-29T16:04:39.517Z,11.12
2018-09-29T16:07:43.125Z,10.98
2018-09-29T16:10:46.808Z,10.87
2018-09-29T16:13:50.425Z,10.78
2018-09-29T16:16:54.056Z,10.65
2018-09-29T16:19:58.040Z,10.54
2018-09-29T16:23:02.206Z,10.43
2018-09-29T16:26:05.839Z,10.30
2018-09-29T16:29:10.413Z,10.28
2018-09-29T16:32:15.504Z,10.22
2018-09-29T16:35:20.781Z,10.15
2018-09-29T16:38:24.974Z,10.06
2018-09-29T16:41:28.710Z,10.01
2018-09-29T16:44:32.353Z,10.00
2018-09-29T16:47:36.489Z,9.92
2018-09-29T16:50:40.201Z,9.86
2018-09-29T16:53:43.873Z,9.79
2018-09-29T16:56:48.392Z,9.70
2018-09-29T16:59:52.196Z,9.61
2018-09-29T17:02:55.829Z,9.53
2018-09-29T17:05:59.563Z,9.50
2018-09-29T17:09:04.103Z,9.40
2018-09-29T17:12:08.234Z,9.37
2018-09-29T17:15:12.029Z,9.37
2018-09-29T17:18:15.773Z,9.47
2018-09-29T17:21:19.552Z,9.41
2018-09-29T17:24:23.165Z,9.45
2018-09-29T17:27:26.835Z,9.41
2018-09-29T17:30:30.442Z,9.23
2018-09-29T17:33:34.068Z,9.16
2018-09-29T17:36:37.703Z,9.09
2018-09-29T17:39:41.408Z,9.14
2018-09-29T17:42:45.268Z,9.14
2018-09-29T17:45:48.961Z,9.17
2018-09-29T17:48:52.541Z,9.09
2018-09-29T17:51:56.304Z,9.09
2018-09-29T17:55:00.080Z,9.18
2018-09-29T17:58:03.763Z,9.15
2018-09-29T18:01:07.681Z,9.19
2018-09-29T18:04:11.515Z,9.12
2018-09-29T18:07:15.007Z,9.06
2018-09-29T18:10:18.870Z,8.93
2018-09-29T18:13:22.686Z,8.90
2018-09-29T18:16:26.561Z,8.78
2018-09-29T18:19:30.403Z,8.65
2018-09-29T18:22:33.963Z,8.58
2018-09-29T18:25:37.708Z,8.49
2018-09-29T18:28:41.379Z,8.50
2018-09-29T18:31:44.984Z,8.44
2018-09-29T18:34:48.603Z,8.44
2018-09-29T18:37:52.171Z,8.42
2018-09-29T18:40:55.902Z,8.44
2018-09-29T18:43:59.663Z,8.52
2018-09-29T18:47:03.266Z,8.39
2018-09-29T18:50:07.005Z,8.36
2018-09-29T18:53:10.705Z,8.32
2018-09-29T18:56:14.354Z,8.30
2018-09-29T18:59:19.157Z,8.36
2018-09-29T19:02:22.865Z,8.49
2018-09-29T19:05:26.554Z,8.31
2018-09-29T19:08:30.279Z,8.30
2018-09-29T19:11:35.236Z,8.29
2018-09-29T19:14:38.882Z,8.20
2018-09-29T19:17:42.671Z,8.22
2018-09-29T19:20:46.385Z,8.18
2018-09-29T19:23:49.932Z,8.18
2018-09-29T19:26:53.539Z,8.16
2018-09-29T19:29:57.198Z,8.19
2018-09-29T19:33:00.801Z,8.03
2018-09-29T19:36:04.658Z,8.21
2018-09-29T19:39:08.407Z,8.29
2018-09-29T19:42:12.041Z,8.13
2018-09-29T19:45:15.777Z,8.16
2018-09-29T19:48:19.696Z,8.33
2018-09-29T19:51:23.452Z,8.23
2018-09-29T19:54:27.122Z,8.31
2018-09-29T19:57:30.751Z,8.45
2018-09-29T20:00:34.399Z,8.51
2018-09-29T20:03:37.920Z,8.57
2018-09-29T20:06:41.631Z,8.60
2018-09-29T20:09:45.221Z,8.56
2018-09-29T20:12:48.905Z,8.50
2018-09-29T20:15:52.624Z,8.78
2018-09-29T20:18:56.256Z,8.74
2018-09-29T20:21:59.915Z,8.58
2018-09-29T20:25:03.758Z,8.68
2018-09-29T20:28:07.723Z,8.71
2018-09-29T20:31:11.367Z,8.71
2018-09-29T20:34:14.981Z,8.67
2018-09-29T20:37:18.676Z,8.86
2018-09-29T20:40:23.900Z,8.94
2018-09-29T20:43:27.572Z,8.81
2018-09-29T20:46:31.151Z,8.79
2018-09-29T20:49:34.934Z,8.75
2018-09-29T20:52:38.685Z,8.70
2018-09-29T20:55:42.296Z,8.81
2018-09-29T20:58:45.908Z,8.82
2018-09-29T21:01:49.611Z,8.65
2018-09-29T21:04:53.184Z,8.50
2018-09-29T21:07:56.833Z,8.47
2018-09-29T21:11:00.532Z,8.46
2018-09-29T21:14:04.224Z,8.35
2018-09-29T21:17:07.756Z,8.32
2018-09-29T21:20:11.476Z,8.38
2018-09-29T21:23:15.127Z,8.38
2018-09-29T21:26:18.715Z,8.28
2018-09-29T21:29:22.308Z,8.22
2018-09-29T21:32:25.918Z,8.27
2018-09-29T21:35:29.429Z,8.20
2018-09-29T21:38:33.077Z,8.14
2018-09-29T21:41:36.699Z,8.22
2018-09-29T21:44:40.230Z,8.14
2018-09-29T21:47:43.877Z,8.06
2018-09-29T21:50:47.477Z,7.92
2018-09-29T21:53:51.021Z,7.90
2018-09-29T21:56:54.711Z,7.82
2018-09-29T21:59:58.398Z,7.87
2018-09-29T22:03:01.966Z,7.89
2018-09-29T22:06:05.723Z,7.78
2018-09-29T22:09:09.333Z,7.67
2018-09-29T22:12:12.862Z,7.74
2018-09-29T22:15:16.622Z,7.65
2018-09-29T22:18:20.151Z,7.57
2018-09-29T22:21:23.865Z,7.52
2018-09-29T22:24:27.517Z,7.43
2018-09-29T22:27:31.129Z,7.38
2018-09-29T22:30:34.753Z,7.39
2018-09-29T22:33:38.372Z,7.26
2018-09-29T22:36:41.921Z,7.23
2018-09-29T22:39:45.564Z,7.15
2018-09-29T22:42:49.163Z,7.19
2018-09-29T22:45:52.726Z,7.31
2018-09-29T22:48:56.289Z,7.34
2018-09-29T22:51:59.928Z,7.38
2018-09-29T22:55:03.498Z,7.37
2018-09-29T22:58:07.322Z,7.26
2018-09-29T23:01:10.955Z,7.16
2018-09-29T23:04:14.527Z,7.17
2018-09-29T23:07:18.244Z,7.25
2018-09-29T23:10:21.707Z,7.22
2018-09-29T23:13:25.408Z,7.31
2018-09-29T23:16:28.958Z,7.31
2018-09-29T23:19:32.637Z,7.33
2018-09-29T23:22:36.433Z,7.58
2018-09-29T23:25:39.936Z,7.64
2018-09-29T23:28:43.470Z,7.52
2018-09-29T23:31:47.052Z,7.58
2018-09-29T23:34:50.617Z,7.92
2018-09-29T23:37:54.232Z,7.73
2018-09-29T23:40:58.006Z,7.86
2018-09-29T23:44:01.494Z,7.78
2018-09-29T23:47:05.038Z,7.62
2018-09-29T23:50:08.706Z,7.62
2018-09-29T23:53:13.623Z,7.65
2018-09-29T23:56:17.237Z,7.73
2018-09-29T23:59:20.781Z,7.84
